Time;durP1;ratioP1;P1;durP2;ratioP2;P2;SDS_P1;SDS_P2;PMS_P1;PMS_P2;Temp;Humidity;BMP_temperature;BMP_pressure;BME280_temperature;BME280_humidity;BME280_pressure;Samples;Min_cycle;Max_cycle;Signal;HPM_P1;HPM_P2
2022/11/03 00:00:06;;;;;;;;;;;11.10;91.40;;;;;;5043316;28;19928;-68
2022/11/03 00:02:33;;;;;;;;;;;11.00;91.40;;;;;;5034753;28;19929;-68
2022/11/03 00:06:03;;;;;;;;;;;11.00;91.40;;;;;;5044897;28;20289;-68
2022/11/03 00:07:47;;;;;;;;;;;11.00;91.50;;;;;;5036515;28;19940;-69
2022/11/03 00:10:14;;;;;;;;;;;11.00;91.50;;;;;;5038376;28;20019;-69
2022/11/03 00:12:41;;;;;;;;;;;10.90;91.50;;;;;;5042508;28;20313;-68
2022/11/03 00:15:07;;;;;;;;;;;11.00;91.50;;;;;;5042717;28;19933;-69
2022/11/03 00:17:34;;;;;;;;;;;10.90;91.50;;;;;;5041304;28;19929;-69
2022/11/03 00:20:02;;;;;;;;;;;10.90;91.50;;;;;;5045532;28;19935;-68
2022/11/03 00:22:31;;;;;;;;;;;10.90;91.50;;;;;;5044587;28;19937;-69
2022/11/03 00:24:58;;;;;;;;;;;10.90;91.50;;;;;;5043124;28;19932;-70
2022/11/03 00:27:25;;;;;;;;;;;10.90;91.50;;;;;;5041622;28;19928;-69
2022/11/03 00:29:51;;;;;;;;;;;10.80;91.50;;;;;;5043441;28;19929;-68
2022/11/03 00:32:18;;;;;;;;;;;10.80;91.50;;;;;;5041551;28;19936;-68
2022/11/03 00:34:45;;;;;;;;;;;10.80;91.50;;;;;;5044571;28;19933;-70
2022/11/03 00:37:12;;;;;;;;;;;10.80;91.50;;;;;;5044873;28;19936;-69
2022/11/03 00:39:39;;;;;;;;;;;10.80;91.50;;;;;;5041797;28;19974;-69
2022/11/03 00:42:06;;;;;;;;;;;10.80;91.50;;;;;;5036784;28;19935;-69
2022/11/03 00:44:32;;;;;;;;;;;10.70;91.50;;;;;;5043478;28;19929;-69
2022/11/03 00:46:59;;;;;;;;;;;10.70;91.60;;;;;;5041647;28;19928;-70
2022/11/03 00:49:25;;;;;;;;;;;10.70;91.50;;;;;;5043729;28;19928;-68
2022/11/03 00:51:52;;;;;;;;;;;10.70;91.60;;;;;;5042485;28;19928;-70
2022/11/03 00:54:20;;;;;;;;;;;10.70;91.60;;;;;;5037417;28;19928;-68
2022/11/03 00:56:46;;;;;;;;;;;10.60;91.60;;;;;;5039502;28;19935;-70
2022/11/03 00:59:13;;;;;;;;;;;10.70;91.60;;;;;;5038800;28;19937;-71
2022/11/03 01:01:40;;;;;;;;;;;10.60;91.60;;;;;;5040084;28;19933;-69
2022/11/03 01:06:53;;;;;;;;;;;10.60;91.70;;;;;;5036333;28;20003;-70
2022/11/03 01:09:21;;;;;;;;;;;10.60;91.70;;;;;;5038944;28;20356;-69
2022/11/03 01:11:51;;;;;;;;;;;10.50;91.70;;;;;;5037534;28;20007;-69
2022/11/03 01:14:18;;;;;;;;;;;10.50;91.70;;;;;;5041668;28;20534;-69
2022/11/03 01:16:44;;;;;;;;;;;10.50;91.70;;;;;;5038326;28;20459;-68
2022/11/03 01:19:11;;;;;;;;;;;10.50;91.70;;;;;;5041542;28;19979;-69
2022/11/03 01:21:37;;;;;;;;;;;10.50;91.70;;;;;;5038429;28;19984;-69
2022/11/03 01:24:04;;;;;;;;;;;10.50;91.70;;;;;;5040300;28;20495;-69
2022/11/03 01:26:32;;;;;;;;;;;10.40;91.70;;;;;;5042383;28;20347;-69
2022/11/03 01:29:00;;;;;;;;;;;10.40;91.80;;;;;;5044082;28;20426;-67
2022/11/03 01:31:27;;;;;;;;;;;10.40;91.80;;;;;;5042393;28;20002;-68
2022/11/03 01:33:55;;;;;;;;;;;10.40;91.90;;;;;;5040960;28;19992;-69
2022/11/03 01:36:21;;;;;;;;;;;10.40;91.90;;;;;;5043063;28;19982;-68
2022/11/03 01:38:48;;;;;;;;;;;10.40;92.00;;;;;;5042876;28;19980;-69
2022/11/03 01:41:16;;;;;;;;;;;10.30;92.00;;;;;;5037799;28;19983;-69
2022/11/03 01:43:44;;;;;;;;;;;10.30;92.00;;;;;;5036754;28;20014;-69
2022/11/03 01:46:16;;;;;;;;;;;10.30;92.00;;;;;;5032867;28;20003;-69
2022/11/03 01:48:44;;;;;;;;;;;10.30;92.00;;;;;;5033905;28;20061;-70
2022/11/03 01:51:13;;;;;;;;;;;10.30;92.10;;;;;;5043964;28;20015;-69
2022/11/03 01:53:42;;;;;;;;;;;10.30;92.10;;;;;;5045744;28;19999;-68
2022/11/03 01:56:09;;;;;;;;;;;10.30;92.10;;;;;;5040323;28;20080;-69
2022/11/03 01:58:37;;;;;;;;;;;10.30;92.10;;;;;;5036877;28;19976;-71
2022/11/03 02:01:06;;;;;;;;;;;10.30;92.10;;;;;;5044252;28;20006;-67
2022/11/03 02:03:34;;;;;;;;;;;10.20;92.10;;;;;;5047139;28;19995;-69
2022/11/03 02:06:01;;;;;;;;;;;10.30;92.20;;;;;;5046681;28;19983;-69
2022/11/03 02:08:30;;;;;;;;;;;10.20;92.20;;;;;;5041431;28;19980;-69
2022/11/03 02:10:57;;;;;;;;;;;10.20;92.20;;;;;;5042676;28;19992;-68
2022/11/03 02:13:25;;;;;;;;;;;10.20;92.10;;;;;;5045076;28;19998;-69
2022/11/03 02:15:53;;;;;;;;;;;10.20;92.10;;;;;;5042210;28;19992;-70
2022/11/03 02:18:22;;;;;;;;;;;10.20;92.10;;;;;;5040943;28;20010;-68
2022/11/03 02:20:52;;;;;;;;;;;10.10;92.10;;;;;;5041842;28;19987;-67
2022/11/03 02:23:21;;;;;;;;;;;10.10;92.20;;;;;;5046632;28;20121;-68
2022/11/03 02:25:50;;;;;;;;;;;10.10;92.10;;;;;;5040471;28;20460;-68
2022/11/03 02:28:18;;;;;;;;;;;10.10;92.10;;;;;;5041771;28;19980;-67
2022/11/03 02:30:46;;;;;;;;;;;10.00;92.10;;;;;;5045345;28;20007;-70
2022/11/03 02:33:21;;;;;;;;;;;10.00;92.10;;;;;;5043725;28;20367;-68
2022/11/03 02:35:49;;;;;;;;;;;10.00;92.20;;;;;;5041149;28;20023;-69
2022/11/03 02:38:17;;;;;;;;;;;10.00;92.30;;;;;;5044859;28;19995;-68
2022/11/03 02:40:46;;;;;;;;;;;10.00;92.30;;;;;;5045360;28;20014;-68
2022/11/03 02:43:14;;;;;;;;;;;10.00;92.30;;;;;;5045695;28;19996;-69
2022/11/03 02:45:41;;;;;;;;;;;10.00;92.30;;;;;;5043275;28;20002;-68
2022/11/03 02:48:08;;;;;;;;;;;10.00;92.30;;;;;;5039239;28;19991;-68
2022/11/03 02:50:35;;;;;;;;;;;10.00;92.30;;;;;;5047076;28;20621;-72
2022/11/03 02:53:02;;;;;;;;;;;9.90;92.30;;;;;;5045761;28;19999;-69
2022/11/03 02:55:33;;;;;;;;;;;9.90;92.30;;;;;;5040624;28;19987;-68
2022/11/03 02:58:04;;;;;;;;;;;9.90;92.30;;;;;;5037393;28;20368;-67
2022/11/03 03:00:32;;;;;;;;;;;9.90;92.40;;;;;;5040427;28;20395;-69
2022/11/03 03:03:02;;;;;;;;;;;9.90;92.30;;;;;;5043105;28;20023;-69
2022/11/03 03:05:31;;;;;;;;;;;9.90;92.30;;;;;;5045344;28;19983;-69
2022/11/03 03:08:00;;;;;;;;;;;9.80;92.30;;;;;;5042901;28;19971;-68
2022/11/03 03:10:29;;;;;;;;;;;9.80;92.30;;;;;;5032219;28;19996;-68
2022/11/03 03:12:57;;;;;;;;;;;9.80;92.40;;;;;;5041205;28;20463;-68
2022/11/03 03:15:29;;;;;;;;;;;9.80;92.40;;;;;;5044278;28;19972;-70
2022/11/03 03:18:00;;;;;;;;;;;9.80;92.40;;;;;;5034733;28;19980;-68
2022/11/03 03:20:31;;;;;;;;;;;9.80;92.30;;;;;;5040363;28;19976;-68
2022/11/03 03:23:00;;;;;;;;;;;9.70;92.40;;;;;;5038966;28;20003;-69
2022/11/03 03:25:28;;;;;;;;;;;9.70;92.40;;;;;;5039770;28;20436;-70
2022/11/03 03:27:58;;;;;;;;;;;9.70;92.40;;;;;;5044511;28;19991;-68
2022/11/03 03:30:24;;;;;;;;;;;9.70;92.40;;;;;;5043519;28;19984;-70
2022/11/03 03:32:52;;;;;;;;;;;9.70;92.40;;;;;;5041218;28;19980;-69
2022/11/03 03:35:22;;;;;;;;;;;9.70;92.50;;;;;;5043749;28;19988;-69
2022/11/03 03:37:50;;;;;;;;;;;9.60;92.50;;;;;;5044231;28;19979;-68
2022/11/03 03:40:21;;;;;;;;;;;9.60;92.50;;;;;;5044024;28;19980;-69
2022/11/03 03:42:48;;;;;;;;;;;9.60;92.50;;;;;;5041791;28;19980;-69
2022/11/03 03:45:16;;;;;;;;;;;9.60;92.60;;;;;;5040403;28;19980;-70
2022/11/03 03:47:43;;;;;;;;;;;9.60;92.60;;;;;;5040632;28;20062;-69
2022/11/03 03:50:10;;;;;;;;;;;9.60;92.60;;;;;;5040671;28;19984;-69
2022/11/03 03:52:38;;;;;;;;;;;9.60;92.60;;;;;;5043550;28;20003;-69
2022/11/03 03:55:07;;;;;;;;;;;9.60;92.70;;;;;;5045898;28;19986;-69
2022/11/03 03:57:34;;;;;;;;;;;9.50;92.70;;;;;;5042082;28;20120;-69
2022/11/03 04:00:00;;;;;;;;;;;9.50;92.60;;;;;;5038423;28;19986;-68
2022/11/03 04:02:27;;;;;;;;;;;9.50;92.70;;;;;;5044036;28;19998;-68
2022/11/03 04:04:53;;;;;;;;;;;9.50;92.70;;;;;;5035849;28;20015;-68
2022/11/03 04:10:06;;;;;;;;;;;9.50;92.80;;;;;;5036275;28;19983;-68
2022/11/03 04:23:29;;;;;;;;;;;9.40;92.80;;;;;;5044174;28;20065;-68
2022/11/03 04:25:57;;;;;;;;;;;9.40;92.80;;;;;;5036924;28;19983;-69
2022/11/03 04:28:25;;;;;;;;;;;9.40;92.90;;;;;;5037281;28;19984;-69
2022/11/03 04:30:51;;;;;;;;;;;9.40;92.90;;;;;;5035991;28;19996;-68
2022/11/03 04:33:19;;;;;;;;;;;9.40;93.00;;;;;;5035576;28;20003;-70
2022/11/03 04:35:46;;;;;;;;;;;9.40;93.00;;;;;;5043891;28;19987;-67
2022/11/03 04:38:21;;;;;;;;;;;9.40;93.00;;;;;;5040367;28;20474;-70
2022/11/03 04:40:48;;;;;;;;;;;9.30;93.00;;;;;;5035383;28;20090;-69
2022/11/03 04:43:18;;;;;;;;;;;9.30;93.00;;;;;;5037769;28;19992;-68
2022/11/03 04:45:45;;;;;;;;;;;9.30;93.00;;;;;;5037239;28;20007;-69
2022/11/03 04:48:13;;;;;;;;;;;9.30;93.00;;;;;;5036431;28;20012;-69
2022/11/03 04:50:40;;;;;;;;;;;9.30;93.10;;;;;;5038936;28;19983;-69
2022/11/03 04:53:09;;;;;;;;;;;9.20;93.00;;;;;;5043057;28;20000;-68
2022/11/03 04:55:36;;;;;;;;;;;9.30;93.00;;;;;;5036406;28;19979;-68
2022/11/03 04:58:09;;;;;;;;;;;9.30;93.10;;;;;;5038596;28;19994;-69
2022/11/03 05:00:39;;;;;;;;;;;9.20;93.00;;;;;;5040244;28;19992;-69
2022/11/03 05:03:05;;;;;;;;;;;9.20;93.00;;;;;;5035716;28;20007;-69
2022/11/03 05:05:32;;;;;;;;;;;9.30;93.20;;;;;;5037064;28;19976;-68
2022/11/03 05:07:58;;;;;;;;;;;9.20;93.10;;;;;;5038328;28;20400;-69
2022/11/03 05:10:26;;;;;;;;;;;9.20;93.10;;;;;;5039115;28;19975;-68
2022/11/03 05:12:54;;;;;;;;;;;9.20;93.10;;;;;;5042558;28;20049;-69
2022/11/03 05:15:28;;;;;;;;;;;9.20;93.20;;;;;;5033131;28;19980;-68
2022/11/03 05:17:56;;;;;;;;;;;9.20;93.20;;;;;;5042112;28;20032;-68
2022/11/03 05:20:30;;;;;;;;;;;9.20;93.20;;;;;;5043445;28;19976;-68
2022/11/03 05:22:57;;;;;;;;;;;9.20;93.20;;;;;;5040230;28;20646;-69
2022/11/03 05:25:35;;;;;;;;;;;9.20;93.20;;;;;;5040660;28;20472;-70
2022/11/03 05:28:02;;;;;;;;;;;9.20;93.20;;;;;;5040149;28;19983;-68
2022/11/03 05:30:28;;;;;;;;;;;9.10;93.20;;;;;;5041175;28;20074;-70
2022/11/03 05:32:57;;;;;;;;;;;9.10;93.20;;;;;;5036361;28;20087;-69
2022/11/03 05:35:24;;;;;;;;;;;9.10;93.20;;;;;;5044396;28;19976;-67
2022/11/03 05:37:51;;;;;;;;;;;9.10;93.20;;;;;;5043078;28;19979;-69
2022/11/03 05:40:21;;;;;;;;;;;9.10;93.20;;;;;;5042437;28;20681;-68
2022/11/03 05:42:50;;;;;;;;;;;9.10;93.20;;;;;;5042840;28;20408;-68
2022/11/03 05:45:20;;;;;;;;;;;9.10;93.20;;;;;;5041689;28;20450;-69
2022/11/03 05:47:47;;;;;;;;;;;9.10;93.30;;;;;;5032741;28;19987;-68
2022/11/03 05:50:19;;;;;;;;;;;9.10;93.30;;;;;;5038773;28;19984;-68
2022/11/03 05:52:46;;;;;;;;;;;9.00;93.30;;;;;;5042145;28;20526;-70
2022/11/03 05:55:20;;;;;;;;;;;9.00;93.30;;;;;;5038800;28;20467;-68
2022/11/03 05:57:47;;;;;;;;;;;8.90;92.90;;;;;;5040169;28;20423;-68
2022/11/03 06:00:21;;;;;;;;;;;8.80;93.30;;;;;;5039785;28;20399;-69
2022/11/03 06:02:49;;;;;;;;;;;8.80;93.50;;;;;;5040172;28;19979;-69
2022/11/03 06:05:18;;;;;;;;;;;8.80;93.70;;;;;;5041275;28;19980;-68
2022/11/03 06:07:45;;;;;;;;;;;8.80;93.70;;;;;;5042216;28;19987;-72
2022/11/03 06:10:21;;;;;;;;;;;8.80;93.80;;;;;;5043007;28;20031;-67
2022/11/03 06:12:47;;;;;;;;;;;8.80;93.80;;;;;;5041532;28;19999;-70
2022/11/03 06:15:22;;;;;;;;;;;8.80;93.80;;;;;;5041753;28;20435;-69
2022/11/03 06:17:48;;;;;;;;;;;8.80;93.80;;;;;;5035656;28;19979;-69
2022/11/03 06:20:20;;;;;;;;;;;8.80;93.70;;;;;;5040190;28;19979;-71
2022/11/03 06:22:47;;;;;;;;;;;8.80;93.70;;;;;;5040059;28;20713;-69
2022/11/03 06:25:21;;;;;;;;;;;8.80;93.70;;;;;;5039693;28;19980;-69
2022/11/03 06:27:48;;;;;;;;;;;8.80;93.70;;;;;;5042240;28;19990;-69
2022/11/03 06:30:20;;;;;;;;;;;8.80;93.70;;;;;;5040019;28;20383;-70
2022/11/03 06:32:47;;;;;;;;;;;8.80;93.70;;;;;;5037176;28;20114;-69
2022/11/03 06:35:14;;;;;;;;;;;8.80;93.60;;;;;;5043844;28;19980;-70
2022/11/03 06:37:42;;;;;;;;;;;8.80;93.70;;;;;;5046514;28;20042;-70
2022/11/03 06:40:32;;;;;;;;;;;8.80;93.70;;;;;;5043042;28;19987;-69
2022/11/03 06:42:59;;;;;;;;;;;8.90;93.70;;;;;;5043946;28;19929;-70
2022/11/03 06:45:26;;;;;;;;;;;8.90;93.70;;;;;;5045590;28;19940;-70
2022/11/03 06:47:53;;;;;;;;;;;8.80;93.80;;;;;;5042920;28;20465;-69
2022/11/03 06:50:21;;;;;;;;;;;8.80;93.70;;;;;;5043813;28;19933;-69
2022/11/03 06:52:49;;;;;;;;;;;8.80;93.70;;;;;;5046775;28;19982;-69
2022/11/03 06:55:21;;;;;;;;;;;8.80;93.70;;;;;;5045792;28;19980;-70
2022/11/03 06:57:48;;;;;;;;;;;8.80;93.70;;;;;;5041331;28;20062;-71
2022/11/03 07:00:19;;;;;;;;;;;8.80;93.70;;;;;;5043100;28;19987;-70
2022/11/03 07:03:01;;;;;;;;;;;8.80;93.80;;;;;;5043070;28;20519;-69
2022/11/03 07:05:28;;;;;;;;;;;8.80;93.70;;;;;;5041744;28;19995;-70
2022/11/03 07:07:57;;;;;;;;;;;8.80;93.80;;;;;;5046606;28;19986;-70
2022/11/03 07:10:24;;;;;;;;;;;8.80;93.80;;;;;;5042877;28;19976;-69
2022/11/03 07:12:51;;;;;;;;;;;8.80;93.80;;;;;;5045989;28;20306;-70
2022/11/03 07:15:23;;;;;;;;;;;8.80;93.80;;;;;;5042913;28;19980;-69
2022/11/03 07:17:50;;;;;;;;;;;8.80;93.80;;;;;;5041035;28;19990;-70
2022/11/03 07:20:17;;;;;;;;;;;8.80;93.80;;;;;;5044798;28;19995;-69
2022/11/03 07:22:44;;;;;;;;;;;8.80;93.80;;;;;;5044657;28;19986;-70
2022/11/03 07:25:15;;;;;;;;;;;8.80;93.80;;;;;;5036957;28;19984;-70
2022/11/03 07:27:42;;;;;;;;;;;8.80;93.90;;;;;;5043519;28;19984;-70
2022/11/03 07:30:14;;;;;;;;;;;8.80;94.00;;;;;;5043401;28;19986;-70
2022/11/03 07:32:40;;;;;;;;;;;8.80;94.30;;;;;;5043565;28;19992;-70
2022/11/03 07:35:16;;;;;;;;;;;8.80;94.00;;;;;;5042109;28;19983;-70
2022/11/03 07:37:43;;;;;;;;;;;8.80;94.00;;;;;;5043311;28;19986;-71
2022/11/03 07:40:12;;;;;;;;;;;8.80;94.00;;;;;;5037545;28;19984;-70
2022/11/03 07:42:40;;;;;;;;;;;8.80;94.00;;;;;;5038352;28;19983;-70
2022/11/03 07:45:29;;;;;;;;;;;8.80;94.00;;;;;;5039225;28;19990;-69
2022/11/03 07:47:55;;;;;;;;;;;8.80;94.10;;;;;;5042594;28;19987;-70
2022/11/03 07:50:22;;;;;;;;;;;8.80;94.10;;;;;;5036533;28;19983;-70
2022/11/03 07:52:48;;;;;;;;;;;8.70;94.10;;;;;;5039459;28;20011;-70
2022/11/03 07:55:15;;;;;;;;;;;8.80;94.10;;;;;;5041197;28;19987;-69
2022/11/03 07:57:43;;;;;;;;;;;8.80;94.10;;;;;;5040298;28;20006;-69
2022/11/03 08:00:19;;;;;;;;;;;8.80;94.10;;;;;;5041104;28;19980;-69
2022/11/03 08:02:48;;;;;;;;;;;8.80;94.20;;;;;;5037966;28;19980;-70
2022/11/03 08:05:14;;;;;;;;;;;8.80;94.10;;;;;;5042575;28;19980;-70
2022/11/03 08:07:41;;;;;;;;;;;8.80;94.10;;;;;;5043881;28;20443;-71
2022/11/03 08:10:08;;;;;;;;;;;8.80;94.10;;;;;;5043951;28;20507;-70
2022/11/03 08:12:34;;;;;;;;;;;8.80;94.10;;;;;;5043907;28;19992;-73
2022/11/03 08:15:02;;;;;;;;;;;8.80;94.10;;;;;;5037802;28;19987;-69
2022/11/03 08:17:29;;;;;;;;;;;8.80;94.10;;;;;;5043413;28;19996;-70
2022/11/03 08:19:55;;;;;;;;;;;8.90;94.10;;;;;;5035206;28;19980;-71
2022/11/03 08:22:24;;;;;;;;;;;8.90;94.10;;;;;;5043664;28;19976;-71
2022/11/03 08:24:51;;;;;;;;;;;8.90;94.10;;;;;;5034448;28;20000;-70
2022/11/03 08:27:18;;;;;;;;;;;8.90;94.10;;;;;;5040989;28;19983;-73
2022/11/03 08:29:44;;;;;;;;;;;8.90;94.10;;;;;;5037146;28;19984;-70
2022/11/03 08:32:12;;;;;;;;;;;8.90;94.10;;;;;;5041988;28;20011;-71
2022/11/03 08:34:39;;;;;;;;;;;8.90;94.10;;;;;;5039562;28;19992;-70
2022/11/03 08:37:05;;;;;;;;;;;8.90;94.10;;;;;;5043367;28;19983;-70
2022/11/03 08:39:32;;;;;;;;;;;9.00;94.10;;;;;;5044879;28;19976;-70
2022/11/03 08:41:58;;;;;;;;;;;9.00;94.10;;;;;;5043528;28;19980;-78
2022/11/03 08:44:25;;;;;;;;;;;9.00;94.10;;;;;;5039872;28;20157;-77
2022/11/03 08:46:51;;;;;;;;;;;9.00;94.10;;;;;;5039080;28;19996;-77
2022/11/03 08:49:19;;;;;;;;;;;9.00;94.10;;;;;;5036529;28;20349;-77
2022/11/03 08:51:46;;;;;;;;;;;9.00;94.00;;;;;;5041973;28;20217;-77
2022/11/03 08:54:13;;;;;;;;;;;9.00;94.00;;;;;;5038367;28;19992;-77
2022/11/03 08:56:39;;;;;;;;;;;9.00;94.00;;;;;;5040500;28;19976;-77
2022/11/03 08:59:06;;;;;;;;;;;9.00;94.10;;;;;;5031195;28;19980;-77
2022/11/03 09:01:32;;;;;;;;;;;9.10;94.10;;;;;;5033170;28;20003;-77
2022/11/03 09:03:59;;;;;;;;;;;9.10;94.00;;;;;;5037694;28;19987;-77
2022/11/03 09:06:27;;;;;;;;;;;9.10;94.00;;;;;;5036997;28;20503;-78
2022/11/03 09:08:53;;;;;;;;;;;9.10;93.90;;;;;;5036636;28;20546;-77
2022/11/03 09:11:20;;;;;;;;;;;9.10;93.90;;;;;;5040652;28;20732;-78
2022/11/03 09:13:46;;;;;;;;;;;9.20;93.90;;;;;;5037672;28;20480;-77
2022/11/03 09:16:13;;;;;;;;;;;9.10;93.90;;;;;;5033781;28;19992;-76
2022/11/03 09:18:40;;;;;;;;;;;9.20;93.90;;;;;;5032514;28;19976;-77
2022/11/03 09:21:07;;;;;;;;;;;9.20;94.00;;;;;;5041992;28;19991;-77
2022/11/03 09:23:35;;;;;;;;;;;9.20;93.90;;;;;;5042245;28;20000;-77
2022/11/03 09:26:02;;;;;;;;;;;9.30;93.90;;;;;;5036331;28;19991;-77
2022/11/03 09:28:28;;;;;;;;;;;9.30;93.90;;;;;;5034989;28;19984;-77
2022/11/03 09:30:55;;;;;;;;;;;9.30;93.80;;;;;;5039536;28;19999;-76
2022/11/03 09:33:21;;;;;;;;;;;9.40;93.80;;;;;;5037526;28;19995;-77
2022/11/03 09:35:48;;;;;;;;;;;9.30;93.70;;;;;;5038613;28;19983;-77
2022/11/03 09:38:14;;;;;;;;;;;9.40;93.70;;;;;;5035105;28;20619;-77
2022/11/03 09:40:42;;;;;;;;;;;9.50;93.70;;;;;;5034359;28;20198;-77
2022/11/03 09:43:09;;;;;;;;;;;9.50;93.60;;;;;;5038399;28;19989;-77
2022/11/03 09:45:36;;;;;;;;;;;9.50;93.60;;;;;;5036601;28;20000;-77
2022/11/03 09:48:02;;;;;;;;;;;9.50;93.50;;;;;;5037799;28;19982;-76
2022/11/03 09:50:29;;;;;;;;;;;9.50;93.50;;;;;;5030770;28;19979;-77
2022/11/03 09:52:56;;;;;;;;;;;9.60;93.40;;;;;;5034728;28;20007;-77
2022/11/03 09:55:23;;;;;;;;;;;9.60;93.40;;;;;;5033937;28;20466;-77
2022/11/03 09:57:52;;;;;;;;;;;9.70;93.30;;;;;;5034871;28;20002;-77
2022/11/03 10:00:20;;;;;;;;;;;9.70;93.30;;;;;;5036838;28;19979;-77
2022/11/03 10:02:47;;;;;;;;;;;9.70;93.30;;;;;;5032946;28;19980;-77
2022/11/03 10:05:14;;;;;;;;;;;9.70;93.20;;;;;;5038776;28;19983;-77
2022/11/03 10:07:42;;;;;;;;;;;9.80;93.20;;;;;;5035446;28;19976;-77
2022/11/03 10:10:15;;;;;;;;;;;9.80;93.10;;;;;;5037306;28;19972;-77
2022/11/03 10:12:41;;;;;;;;;;;9.80;93.10;;;;;;5041414;28;19991;-77
2022/11/03 10:15:13;;;;;;;;;;;9.80;93.00;;;;;;5040652;28;19987;-77
2022/11/03 10:17:40;;;;;;;;;;;9.80;93.00;;;;;;5037835;28;20374;-78
2022/11/03 10:20:06;;;;;;;;;;;9.90;93.10;;;;;;5036031;28;19983;-77
2022/11/03 10:22:33;;;;;;;;;;;9.90;93.10;;;;;;5037465;28;20447;-77
2022/11/03 10:25:18;;;;;;;;;;;9.90;93.10;;;;;;5035461;28;20652;-76
2022/11/03 10:27:45;;;;;;;;;;;10.00;93.20;;;;;;5037737;28;19991;-77
2022/11/03 10:30:13;;;;;;;;;;;10.00;93.10;;;;;;5035192;28;19979;-77
2022/11/03 10:32:40;;;;;;;;;;;10.00;93.10;;;;;;5040825;28;19994;-77
2022/11/03 10:35:31;;;;;;;;;;;10.00;93.10;;;;;;5039326;28;21565;-77
2022/11/03 10:38:17;;;;;;;;;;;10.00;93.10;;;;;;5039363;28;19987;-77
2022/11/03 10:40:43;;;;;;;;;;;10.10;93.10;;;;;;5035530;28;19979;-77
2022/11/03 10:43:11;;;;;;;;;;;10.10;93.00;;;;;;5042500;28;20413;-76
2022/11/03 10:45:39;;;;;;;;;;;10.10;93.00;;;;;;5032931;28;20006;-77
2022/11/03 10:48:07;;;;;;;;;;;10.10;93.00;;;;;;5034010;28;19987;-77
2022/11/03 10:50:34;;;;;;;;;;;10.20;93.00;;;;;;5045672;28;20440;-77
2022/11/03 10:53:01;;;;;;;;;;;10.10;93.00;;;;;;5039871;28;20000;-76
2022/11/03 10:55:28;;;;;;;;;;;10.20;93.10;;;;;;5031645;28;20573;-77
2022/11/03 10:57:55;;;;;;;;;;;10.20;93.00;;;;;;5041472;28;19987;-77
2022/11/03 11:00:22;;;;;;;;;;;10.30;93.00;;;;;;5040567;28;19982;-77
2022/11/03 11:02:55;;;;;;;;;;;10.30;93.00;;;;;;5039392;28;20321;-77
2022/11/03 11:05:23;;;;;;;;;;;10.30;93.00;;;;;;5041670;28;20088;-77
2022/11/03 11:07:50;;;;;;;;;;;10.30;93.00;;;;;;5036480;28;19979;-77
2022/11/03 11:10:18;;;;;;;;;;;10.30;93.00;;;;;;5037946;28;19984;-77
2022/11/03 11:13:03;;;;;;;;;;;10.30;93.00;;;;;;5042550;28;20494;-77
2022/11/03 11:15:37;;;;;;;;;;;10.40;93.00;;;;;;5039490;28;20003;-76
2022/11/03 11:18:05;;;;;;;;;;;10.40;93.10;;;;;;5039638;28;20026;-77
2022/11/03 11:20:35;;;;;;;;;;;10.40;93.00;;;;;;5038224;28;19976;-77
2022/11/03 11:23:21;;;;;;;;;;;10.40;93.00;;;;;;5039333;28;20259;-77
2022/11/03 11:26:06;;;;;;;;;;;10.40;93.00;;;;;;5039266;28;19980;-77
2022/11/03 11:28:33;;;;;;;;;;;10.50;93.00;;;;;;5039516;28;19983;-77
2022/11/03 11:31:00;;;;;;;;;;;10.50;93.30;;;;;;5038249;28;20068;-77
2022/11/03 11:33:28;;;;;;;;;;;10.50;93.00;;;;;;5045103;28;20323;-78
2022/11/03 11:36:06;;;;;;;;;;;10.50;93.00;;;;;;5035093;28;19980;-77
2022/11/03 11:38:59;;;;;;;;;;;10.60;93.10;;;;;;5039533;28;20057;-77
2022/11/03 11:41:45;;;;;;;;;;;10.50;93.00;;;;;;4999367;28;20394;-77
2022/11/03 11:44:30;;;;;;;;;;;10.60;93.00;;;;;;5039336;28;19998;-77
2022/11/03 11:46:57;;;;;;;;;;;10.60;93.00;;;;;;5037169;28;19991;-77
2022/11/03 11:49:25;;;;;;;;;;;10.60;93.00;;;;;;5032068;28;19983;-77
2022/11/03 11:51:51;;;;;;;;;;;10.60;93.00;;;;;;5038548;28;19983;-77
2022/11/03 11:54:20;;;;;;;;;;;10.60;93.00;;;;;;5039488;28;20290;-77
2022/11/03 11:56:48;;;;;;;;;;;10.70;93.10;;;;;;5038842;28;19979;-77
2022/11/03 11:59:16;;;;;;;;;;;10.70;93.20;;;;;;5041502;28;19995;-77
2022/11/03 12:01:43;;;;;;;;;;;10.70;93.20;;;;;;5036561;28;20000;-77
2022/11/03 12:04:16;;;;;;;;;;;10.80;93.20;;;;;;5036823;28;20101;-77
2022/11/03 12:06:44;;;;;;;;;;;10.80;93.20;;;;;;5038515;28;20689;-77
2022/11/03 12:09:16;;;;;;;;;;;10.80;93.20;;;;;;5039739;28;19979;-77
2022/11/03 12:11:43;;;;;;;;;;;10.80;93.20;;;;;;5041053;28;19979;-76
2022/11/03 12:14:21;;;;;;;;;;;10.90;93.50;;;;;;5041044;28;20006;-76
2022/11/03 12:16:48;;;;;;;;;;;10.80;93.10;;;;;;5040057;28;19996;-78
2022/11/03 12:19:37;;;;;;;;;;;10.80;93.10;;;;;;5039571;28;19983;-77
2022/11/03 12:22:06;;;;;;;;;;;10.90;93.20;;;;;;5036598;28;20087;-77
2022/11/03 12:24:35;;;;;;;;;;;10.90;93.20;;;;;;5041949;28;20563;-77
2022/11/03 12:27:03;;;;;;;;;;;10.90;93.10;;;;;;5037022;28;19980;-77
2022/11/03 12:29:29;;;;;;;;;;;10.90;93.10;;;;;;5041973;28;19979;-77
2022/11/03 12:31:56;;;;;;;;;;;11.00;93.10;;;;;;5035000;28;20007;-77
2022/11/03 12:34:23;;;;;;;;;;;11.00;93.10;;;;;;5037565;28;20006;-77
2022/11/03 12:36:50;;;;;;;;;;;11.00;93.10;;;;;;5037857;28;19980;-77
2022/11/03 12:39:17;;;;;;;;;;;11.00;93.10;;;;;;5036302;28;20070;-77
2022/11/03 12:41:44;;;;;;;;;;;11.00;93.10;;;;;;5038405;28;19980;-77
2022/11/03 12:44:11;;;;;;;;;;;11.00;93.10;;;;;;5038857;28;20003;-77
2022/11/03 12:46:37;;;;;;;;;;;11.00;93.10;;;;;;5035219;28;19991;-77
2022/11/03 12:49:04;;;;;;;;;;;11.00;93.10;;;;;;5036090;28;19980;-76
2022/11/03 12:51:30;;;;;;;;;;;11.10;93.10;;;;;;5033502;28;19983;-77
2022/11/03 12:53:57;;;;;;;;;;;11.10;93.10;;;;;;5039006;28;20418;-77
2022/11/03 12:56:25;;;;;;;;;;;11.10;93.10;;;;;;5037498;28;19980;-77
2022/11/03 12:58:51;;;;;;;;;;;11.10;93.10;;;;;;5033178;28;19980;-77
2022/11/03 13:01:18;;;;;;;;;;;11.10;93.10;;;;;;5032898;28;20118;-77
2022/11/03 13:03:45;;;;;;;;;;;11.20;93.10;;;;;;5035333;28;20027;-77
2022/11/03 13:06:13;;;;;;;;;;;11.20;93.10;;;;;;5035086;28;19991;-77
2022/11/03 13:08:40;;;;;;;;;;;11.20;93.10;;;;;;5037661;28;20483;-77
2022/11/03 13:12:30;;;;;;;;;;;11.20;93.10;;;;;;5038280;28;19996;-77
2022/11/03 13:13:54;;;;;;;;;;;11.20;93.10;;;;;;5037502;28;20003;-76
2022/11/03 13:16:21;;;;;;;;;;;11.20;93.10;;;;;;5035053;28;19991;-77
2022/11/03 13:18:48;;;;;;;;;;;11.20;93.20;;;;;;5040206;28;19976;-77
2022/11/03 13:21:15;;;;;;;;;;;11.20;93.20;;;;;;5034470;28;20070;-77
2022/11/03 13:23:41;;;;;;;;;;;11.20;93.20;;;;;;5040961;28;20019;-77
2022/11/03 13:26:08;;;;;;;;;;;11.20;93.20;;;;;;5033309;28;20549;-77
2022/11/03 13:28:34;;;;;;;;;;;11.30;93.20;;;;;;5034475;28;19980;-77
2022/11/03 13:31:03;;;;;;;;;;;11.30;93.20;;;;;;5037564;28;19996;-78
2022/11/03 13:33:29;;;;;;;;;;;11.30;93.30;;;;;;5037714;28;20006;-77
2022/11/03 13:35:56;;;;;;;;;;;11.30;93.20;;;;;;5037694;28;19976;-77
2022/11/03 13:38:23;;;;;;;;;;;11.30;93.30;;;;;;5038302;28;19983;-78
2022/11/03 13:40:49;;;;;;;;;;;11.30;93.30;;;;;;5036348;28;20419;-77
2022/11/03 13:43:16;;;;;;;;;;;11.30;93.30;;;;;;5036627;28;20513;-76
2022/11/03 13:45:42;;;;;;;;;;;11.30;93.30;;;;;;5036121;28;20083;-77
2022/11/03 13:48:10;;;;;;;;;;;11.40;93.30;;;;;;5038307;28;19979;-77
2022/11/03 13:50:37;;;;;;;;;;;11.40;93.40;;;;;;5041317;28;19983;-77
2022/11/03 13:53:03;;;;;;;;;;;11.40;93.40;;;;;;5037899;28;19992;-77
2022/11/03 13:55:30;;;;;;;;;;;11.40;93.40;;;;;;5039797;28;20482;-77
2022/11/03 13:57:56;;;;;;;;;;;11.40;93.50;;;;;;5037653;28;19983;-77
2022/11/03 14:00:23;;;;;;;;;;;11.40;93.60;;;;;;5040322;28;20619;-77
2022/11/03 14:02:50;;;;;;;;;;;11.50;93.50;;;;;;5038100;28;21570;-77
2022/11/03 14:05:18;;;;;;;;;;;11.40;93.60;;;;;;5035011;28;19980;-77
2022/11/03 14:07:45;;;;;;;;;;;11.40;93.50;;;;;;5038999;28;19991;-77
2022/11/03 14:10:11;;;;;;;;;;;11.50;93.60;;;;;;5036471;28;19976;-77
2022/11/03 14:12:37;;;;;;;;;;;11.50;93.70;;;;;;5041846;28;19980;-76
2022/11/03 14:15:05;;;;;;;;;;;11.50;93.70;;;;;;5038192;28;19988;-77
2022/11/03 14:17:32;;;;;;;;;;;11.50;93.70;;;;;;5037023;28;19987;-77
2022/11/03 14:19:58;;;;;;;;;;;11.50;93.60;;;;;;5037249;28;20845;-77
2022/11/03 14:22:26;;;;;;;;;;;11.60;93.70;;;;;;5040450;28;20356;-77
2022/11/03 14:24:53;;;;;;;;;;;11.50;93.60;;;;;;5038281;28;19996;-77
2022/11/03 14:27:19;;;;;;;;;;;11.50;93.60;;;;;;5039530;28;20517;-77
2022/11/03 14:29:48;;;;;;;;;;;11.60;93.60;;;;;;5036562;28;20403;-75
2022/11/03 14:32:15;;;;;;;;;;;11.60;93.70;;;;;;5038468;28;20038;-77
2022/11/03 14:34:42;;;;;;;;;;;11.60;93.70;;;;;;5043565;28;20004;-77
2022/11/03 14:37:09;;;;;;;;;;;11.60;93.60;;;;;;5038034;28;20015;-77
2022/11/03 14:39:37;;;;;;;;;;;11.60;93.70;;;;;;5035955;28;19976;-77
2022/11/03 14:42:03;;;;;;;;;;;11.60;93.70;;;;;;5037936;28;19980;-77
2022/11/03 14:44:30;;;;;;;;;;;11.60;93.80;;;;;;5041439;28;19988;-77
2022/11/03 14:46:56;;;;;;;;;;;11.70;93.90;;;;;;5042036;28;19999;-77